sensor_id;sensor_type;location;lat;lon;timestamp;P1;P2;P0
44871;PMS7003;30602;51.060;17.226;2023-10-19T00:02:52;33;31;20
44871;PMS7003;30602;51.060;17.226;2023-10-19T00:06:21;37;31;21
44871;PMS7003;30602;51.060;17.226;2023-10-19T00:10:09;35;29;18
44871;PMS7003;30602;51.060;17.226;2023-10-19T00:13:49;37;28;19
44871;PMS7003;30602;51.060;17.226;2023-10-19T00:17:15;32;29;20
44871;PMS7003;30602;51.060;17.226;2023-10-19T00:21:18;35;30;20
44871;PMS7003;30602;51.060;17.226;2023-10-19T00:24:59;45;33;19
44871;PMS7003;30602;51.060;17.226;2023-10-19T00:28:48;34;28;17
44871;PMS7003;30602;51.060;17.226;2023-10-19T00:32:27;41;31;21
44871;PMS7003;30602;51.060;17.226;2023-10-19T00:37:07;34;29;20
44871;PMS7003;30602;51.060;17.226;2023-10-19T00:40:43;36;30;20
44871;PMS7003;30602;51.060;17.226;2023-10-19T00:44:16;35;32;20
44871;PMS7003;30602;51.060;17.226;2023-10-19T00:48:07;39;36;22
44871;PMS7003;30602;51.060;17.226;2023-10-19T00:51:55;39;32;19
44871;PMS7003;30602;51.060;17.226;2023-10-19T00:56:09;41;34;20
44871;PMS7003;30602;51.060;17.226;2023-10-19T01:00:12;42;33;20
44871;PMS7003;30602;51.060;17.226;2023-10-19T01:04:11;42;35;21
44871;PMS7003;30602;51.060;17.226;2023-10-19T01:07:58;34;31;20
44871;PMS7003;30602;51.060;17.226;2023-10-19T01:11:49;37;32;20
44871;PMS7003;30602;51.060;17.226;2023-10-19T01:15:49;36;30;18
44871;PMS7003;30602;51.060;17.226;2023-10-19T01:19:35;35;28;20
44871;PMS7003;30602;51.060;17.226;2023-10-19T01:23:20;45;38;22
44871;PMS7003;30602;51.060;17.226;2023-10-19T01:27:34;37;33;20
44871;PMS7003;30602;51.060;17.226;2023-10-19T01:31:48;43;39;23
44871;PMS7003;30602;51.060;17.226;2023-10-19T01:35:48;43;37;25
44871;PMS7003;30602;51.060;17.226;2023-10-19T01:40:16;43;35;23
44871;PMS7003;30602;51.060;17.226;2023-10-19T01:43:41;42;34;22
44871;PMS7003;30602;51.060;17.226;2023-10-19T01:48:03;46;38;24
44871;PMS7003;30602;51.060;17.226;2023-10-19T01:59:42;52;42;26
44871;PMS7003;30602;51.060;17.226;2023-10-19T02:03:16;49;41;24
44871;PMS7003;30602;51.060;17.226;2023-10-19T02:07:01;47;37;26
44871;PMS7003;30602;51.060;17.226;2023-10-19T02:11:33;49;42;27
44871;PMS7003;30602;51.060;17.226;2023-10-19T02:15:04;33;27;20
44871;PMS7003;30602;51.060;17.226;2023-10-19T02:18:33;46;37;22
44871;PMS7003;30602;51.060;17.226;2023-10-19T02:22:02;52;41;25
44871;PMS7003;30602;51.060;17.226;2023-10-19T02:25:53;42;35;23
44871;PMS7003;30602;51.060;17.226;2023-10-19T02:29:35;44;40;24
44871;PMS7003;30602;51.060;17.226;2023-10-19T02:33:27;46;38;24
44871;PMS7003;30602;51.060;17.226;2023-10-19T02:38:21;55;42;26
44871;PMS7003;30602;51.060;17.226;2023-10-19T02:42:08;41;36;24
44871;PMS7003;30602;51.060;17.226;2023-10-19T02:45:44;44;37;27
44871;PMS7003;30602;51.060;17.226;2023-10-19T02:49:36;46;38;25
44871;PMS7003;30602;51.060;17.226;2023-10-19T02:53:39;51;41;26
44871;PMS7003;30602;51.060;17.226;2023-10-19T02:57:08;45;40;24
44871;PMS7003;30602;51.060;17.226;2023-10-19T03:05:42;49;40;27
44871;PMS7003;30602;51.060;17.226;2023-10-19T03:09:21;45;41;25
44871;PMS7003;30602;51.060;17.226;2023-10-19T03:13:15;46;40;24
44871;PMS7003;30602;51.060;17.226;2023-10-19T03:17:51;44;38;26
44871;PMS7003;30602;51.060;17.226;2023-10-19T03:21:35;46;40;27
44871;PMS7003;30602;51.060;17.226;2023-10-19T03:26:07;52;42;27
44871;PMS7003;30602;51.060;17.226;2023-10-19T03:30:25;55;46;28
44871;PMS7003;30602;51.060;17.226;2023-10-19T03:34:19;40;39;27
44871;PMS7003;30602;51.060;17.226;2023-10-19T03:37:48;52;42;26
44871;PMS7003;30602;51.060;17.226;2023-10-19T03:42:11;51;39;25
44871;PMS7003;30602;51.060;17.226;2023-10-19T03:46:04;42;35;24
44871;PMS7003;30602;51.060;17.226;2023-10-19T03:50:04;49;42;26
44871;PMS7003;30602;51.060;17.226;2023-10-19T03:54:14;44;34;23
44871;PMS7003;30602;51.060;17.226;2023-10-19T03:58:48;55;42;27
44871;PMS7003;30602;51.060;17.226;2023-10-19T04:03:05;52;39;24
44871;PMS7003;30602;51.060;17.226;2023-10-19T04:07:21;46;40;26
44871;PMS7003;30602;51.060;17.226;2023-10-19T04:11:55;56;43;27
44871;PMS7003;30602;51.060;17.226;2023-10-19T04:15:38;48;40;26
44871;PMS7003;30602;51.060;17.226;2023-10-19T04:19:27;51;41;27
44871;PMS7003;30602;51.060;17.226;2023-10-19T04:26:58;58;45;28
44871;PMS7003;30602;51.060;17.226;2023-10-19T04:30:36;49;42;26
44871;PMS7003;30602;51.060;17.226;2023-10-19T04:34:33;54;43;28
44871;PMS7003;30602;51.060;17.226;2023-10-19T04:38:24;46;41;27
44871;PMS7003;30602;51.060;17.226;2023-10-19T04:42:42;52;42;27
44871;PMS7003;30602;51.060;17.226;2023-10-19T04:50:04;44;39;24
44871;PMS7003;30602;51.060;17.226;2023-10-19T04:54:07;59;45;28
44871;PMS7003;30602;51.060;17.226;2023-10-19T04:57:38;55;44;27
44871;PMS7003;30602;51.060;17.226;2023-10-19T05:01:43;58;44;27
44871;PMS7003;30602;51.060;17.226;2023-10-19T05:05:59;50;41;27
44871;PMS7003;30602;51.060;17.226;2023-10-19T05:09:37;50;43;27
44871;PMS7003;30602;51.060;17.226;2023-10-19T05:17:20;50;44;29
44871;PMS7003;30602;51.060;17.226;2023-10-19T05:20:52;54;43;26
44871;PMS7003;30602;51.060;17.226;2023-10-19T05:24:24;51;39;23
44871;PMS7003;30602;51.060;17.226;2023-10-19T05:29:00;55;46;29
44871;PMS7003;30602;51.060;17.226;2023-10-19T05:33:07;51;42;27
44871;PMS7003;30602;51.060;17.226;2023-10-19T05:37:12;55;42;24
44871;PMS7003;30602;51.060;17.226;2023-10-19T05:45:10;51;39;27
44871;PMS7003;30602;51.060;17.226;2023-10-19T05:48:58;53;43;28
44871;PMS7003;30602;51.060;17.226;2023-10-19T05:52:45;56;47;28
44871;PMS7003;30602;51.060;17.226;2023-10-19T05:56:56;46;41;26
44871;PMS7003;30602;51.060;17.226;2023-10-19T06:00:30;59;44;29
44871;PMS7003;30602;51.060;17.226;2023-10-19T06:04:18;54;42;26
44871;PMS7003;30602;51.060;17.226;2023-10-19T06:08:27;56;42;29
44871;PMS7003;30602;51.060;17.226;2023-10-19T06:12:04;44;39;27
44871;PMS7003;30602;51.060;17.226;2023-10-19T06:15:36;40;38;24
44871;PMS7003;30602;51.060;17.226;2023-10-19T06:20:21;51;41;26
44871;PMS7003;30602;51.060;17.226;2023-10-19T06:24:20;54;41;28
44871;PMS7003;30602;51.060;17.226;2023-10-19T06:28:08;41;39;25
44871;PMS7003;30602;51.060;17.226;2023-10-19T06:32:01;47;38;25
44871;PMS7003;30602;51.060;17.226;2023-10-19T06:35:36;48;40;25
44871;PMS7003;30602;51.060;17.226;2023-10-19T06:39:01;44;38;24
44871;PMS7003;30602;51.060;17.226;2023-10-19T06:43:21;43;37;26
44871;PMS7003;30602;51.060;17.226;2023-10-19T06:47:46;42;38;24
44871;PMS7003;30602;51.060;17.226;2023-10-19T06:51:24;45;40;25
44871;PMS7003;30602;51.060;17.226;2023-10-19T06:54:52;40;34;23
44871;PMS7003;30602;51.060;17.226;2023-10-19T06:59:17;52;40;25
44871;PMS7003;30602;51.060;17.226;2023-10-19T07:02:43;39;36;22
44871;PMS7003;30602;51.060;17.226;2023-10-19T07:06:12;41;35;24
44871;PMS7003;30602;51.060;17.226;2023-10-19T07:09:54;41;32;21
44871;PMS7003;30602;51.060;17.226;2023-10-19T07:13:21;43;35;24
44871;PMS7003;30602;51.060;17.226;2023-10-19T07:17:35;47;35;23
44871;PMS7003;30602;51.060;17.226;2023-10-19T07:21:58;47;39;25
44871;PMS7003;30602;51.060;17.226;2023-10-19T07:25:27;40;37;25
44871;PMS7003;30602;51.060;17.226;2023-10-19T07:29:12;42;36;27
44871;PMS7003;30602;51.060;17.226;2023-10-19T07:33:01;41;35;25
44871;PMS7003;30602;51.060;17.226;2023-10-19T07:36:56;51;41;25
44871;PMS7003;30602;51.060;17.226;2023-10-19T07:41:00;51;42;27
44871;PMS7003;30602;51.060;17.226;2023-10-19T07:45:00;44;37;26
44871;PMS7003;30602;51.060;17.226;2023-10-19T07:48:42;50;41;24
44871;PMS7003;30602;51.060;17.226;2023-10-19T07:52:45;55;43;28
44871;PMS7003;30602;51.060;17.226;2023-10-19T07:56:25;51;42;26
44871;PMS7003;30602;51.060;17.226;2023-10-19T08:04:07;46;41;25
44871;PMS7003;30602;51.060;17.226;2023-10-19T08:08:15;41;36;26
44871;PMS7003;30602;51.060;17.226;2023-10-19T08:11:44;45;41;26
44871;PMS7003;30602;51.060;17.226;2023-10-19T08:15:29;39;38;27
44871;PMS7003;30602;51.060;17.226;2023-10-19T08:20:31;58;43;27
44871;PMS7003;30602;51.060;17.226;2023-10-19T08:24:03;46;41;26
44871;PMS7003;30602;51.060;17.226;2023-10-19T08:28:08;51;42;27
44871;PMS7003;30602;51.060;17.226;2023-10-19T08:31:36;49;41;27
44871;PMS7003;30602;51.060;17.226;2023-10-19T08:36:17;57;46;30
44871;PMS7003;30602;51.060;17.226;2023-10-19T08:40:04;49;40;25
44871;PMS7003;30602;51.060;17.226;2023-10-19T08:43:50;50;43;26
44871;PMS7003;30602;51.060;17.226;2023-10-19T08:47:21;59;46;29
44871;PMS7003;30602;51.060;17.226;2023-10-19T08:51:13;57;44;28
44871;PMS7003;30602;51.060;17.226;2023-10-19T08:58:40;46;39;24
44871;PMS7003;30602;51.060;17.226;2023-10-19T09:02:36;55;43;27
44871;PMS7003;30602;51.060;17.226;2023-10-19T09:06:24;59;45;29
44871;PMS7003;30602;51.060;17.226;2023-10-19T09:10:49;54;46;29
44871;PMS7003;30602;51.060;17.226;2023-10-19T09:14:40;48;44;28
44871;PMS7003;30602;51.060;17.226;2023-10-19T09:19:05;57;43;28
44871;PMS7003;30602;51.060;17.226;2023-10-19T09:22:34;48;43;29
44871;PMS7003;30602;51.060;17.226;2023-10-19T09:26:43;56;45;29
44871;PMS7003;30602;51.060;17.226;2023-10-19T09:30:31;56;46;29
44871;PMS7003;30602;51.060;17.226;2023-10-19T09:34:05;56;47;31
44871;PMS7003;30602;51.060;17.226;2023-10-19T09:37:43;56;44;30
44871;PMS7003;30602;51.060;17.226;2023-10-19T09:41:27;58;48;30
44871;PMS7003;30602;51.060;17.226;2023-10-19T09:45:18;57;47;30
44871;PMS7003;30602;51.060;17.226;2023-10-19T09:49:23;52;43;27
44871;PMS7003;30602;51.060;17.226;2023-10-19T09:58:06;57;44;30
44871;PMS7003;30602;51.060;17.226;2023-10-19T10:06:00;56;46;29
44871;PMS7003;30602;51.060;17.226;2023-10-19T10:10:26;57;46;30
44871;PMS7003;30602;51.060;17.226;2023-10-19T10:14:29;64;50;31
44871;PMS7003;30602;51.060;17.226;2023-10-19T10:18:30;60;48;30
44871;PMS7003;30602;51.060;17.226;2023-10-19T10:22:23;55;44;28
44871;PMS7003;30602;51.060;17.226;2023-10-19T10:26:57;61;48;29
44871;PMS7003;30602;51.060;17.226;2023-10-19T10:30:29;60;47;30
44871;PMS7003;30602;51.060;17.226;2023-10-19T10:33:57;58;47;29
44871;PMS7003;30602;51.060;17.226;2023-10-19T10:37:53;56;47;30
44871;PMS7003;30602;51.060;17.226;2023-10-19T10:42:13;60;47;29
44871;PMS7003;30602;51.060;17.226;2023-10-19T10:46:16;58;50;29
44871;PMS7003;30602;51.060;17.226;2023-10-19T10:50:07;65;51;31
44871;PMS7003;30602;51.060;17.226;2023-10-19T10:53:57;61;49;31
44871;PMS7003;30602;51.060;17.226;2023-10-19T11:01:31;65;50;31
44871;PMS7003;30602;51.060;17.226;2023-10-19T11:05:48;62;50;32
44871;PMS7003;30602;51.060;17.226;2023-10-19T11:09:57;56;48;31
44871;PMS7003;30602;51.060;17.226;2023-10-19T11:13:54;55;46;30
44871;PMS7003;30602;51.060;17.226;2023-10-19T11:18:10;60;47;28
44871;PMS7003;30602;51.060;17.226;2023-10-19T11:21:55;56;47;30
44871;PMS7003;30602;51.060;17.226;2023-10-19T11:30:05;65;52;31
44871;PMS7003;30602;51.060;17.226;2023-10-19T11:33:47;57;47;29
44871;PMS7003;30602;51.060;17.226;2023-10-19T11:41:15;54;45;30
44871;PMS7003;30602;51.060;17.226;2023-10-19T12:12:58;73;55;33
44871;PMS7003;30602;51.060;17.226;2023-10-19T12:17:15;66;52;32
44871;PMS7003;30602;51.060;17.226;2023-10-19T12:26:55;69;53;33
44871;PMS7003;30602;51.060;17.226;2023-10-19T12:30:38;48;42;29
44871;PMS7003;30602;51.060;17.226;2023-10-19T12:34:28;58;47;30
44871;PMS7003;30602;51.060;17.226;2023-10-19T12:37:59;56;45;28
44871;PMS7003;30602;51.060;17.226;2023-10-19T12:41:41;60;46;30
44871;PMS7003;30602;51.060;17.226;2023-10-19T12:45:49;61;48;29
44871;PMS7003;30602;51.060;17.226;2023-10-19T12:49:17;53;42;28
44871;PMS7003;30602;51.060;17.226;2023-10-19T12:52:48;57;45;28
44871;PMS7003;30602;51.060;17.226;2023-10-19T12:57:04;62;48;29
44871;PMS7003;30602;51.060;17.226;2023-10-19T13:00:28;49;42;28
44871;PMS7003;30602;51.060;17.226;2023-10-19T13:04:54;59;47;29
44871;PMS7003;30602;51.060;17.226;2023-10-19T13:08:50;59;46;28
44871;PMS7003;30602;51.060;17.226;2023-10-19T13:13:00;54;45;30
44871;PMS7003;30602;51.060;17.226;2023-10-19T13:17:03;53;42;27
44871;PMS7003;30602;51.060;17.226;2023-10-19T13:20:25;64;50;31
44871;PMS7003;30602;51.060;17.226;2023-10-19T13:24:29;61;49;30
44871;PMS7003;30602;51.060;17.226;2023-10-19T13:28:01;59;47;30
44871;PMS7003;30602;51.060;17.226;2023-10-19T13:36:32;59;49;30
44871;PMS7003;30602;51.060;17.226;2023-10-19T13:41:30;57;47;29
44871;PMS7003;30602;51.060;17.226;2023-10-19T13:45:22;60;49;30
44871;PMS7003;30602;51.060;17.226;2023-10-19T13:49:07;62;49;30
44871;PMS7003;30602;51.060;17.226;2023-10-19T13:52:48;64;52;32
44871;PMS7003;30602;51.060;17.226;2023-10-19T13:56:38;67;51;32
44871;PMS7003;30602;51.060;17.226;2023-10-19T14:00:49;69;53;32
44871;PMS7003;30602;51.060;17.226;2023-10-19T14:04:19;62;49;30
44871;PMS7003;30602;51.060;17.226;2023-10-19T14:08:07;54;44;26
44871;PMS7003;30602;51.060;17.226;2023-10-19T14:12:27;57;47;30
44871;PMS7003;30602;51.060;17.226;2023-10-19T14:15:54;58;49;31
44871;PMS7003;30602;51.060;17.226;2023-10-19T14:19:42;62;50;31
44871;PMS7003;30602;51.060;17.226;2023-10-19T14:23:43;61;49;31
44871;PMS7003;30602;51.060;17.226;2023-10-19T14:27:33;55;47;30
44871;PMS7003;30602;51.060;17.226;2023-10-19T14:32:04;59;46;30
44871;PMS7003;30602;51.060;17.226;2023-10-19T14:35:34;58;47;30
44871;PMS7003;30602;51.060;17.226;2023-10-19T14:39:06;60;49;30
44871;PMS7003;30602;51.060;17.226;2023-10-19T14:43:24;60;49;30
44871;PMS7003;30602;51.060;17.226;2023-10-19T14:47:15;61;50;31
44871;PMS7003;30602;51.060;17.226;2023-10-19T14:51:04;62;49;31
44871;PMS7003;30602;51.060;17.226;2023-10-19T14:55:18;67;51;31
44871;PMS7003;30602;51.060;17.226;2023-10-19T14:58:51;63;51;31
44871;PMS7003;30602;51.060;17.226;2023-10-19T15:02:54;58;50;33
44871;PMS7003;30602;51.060;17.226;2023-10-19T15:07:19;65;50;30
44871;PMS7003;30602;51.060;17.226;2023-10-19T15:11:06;68;54;32
44871;PMS7003;30602;51.060;17.226;2023-10-19T15:14:52;63;51;32
44871;PMS7003;30602;51.060;17.226;2023-10-19T15:18:34;66;52;33
44871;PMS7003;30602;51.060;17.226;2023-10-19T15:22:56;70;54;33
44871;PMS7003;30602;51.060;17.226;2023-10-19T15:26:40;67;55;33
44871;PMS7003;30602;51.060;17.226;2023-10-19T15:30:31;66;55;33
44871;PMS7003;30602;51.060;17.226;2023-10-19T15:34:17;70;53;32
44871;PMS7003;30602;51.060;17.226;2023-10-19T15:37:49;67;52;31
44871;PMS7003;30602;51.060;17.226;2023-10-19T15:41:50;68;52;33
44871;PMS7003;30602;51.060;17.226;2023-10-19T15:45:45;64;51;31
44871;PMS7003;30602;51.060;17.226;2023-10-19T15:49:48;65;49;30
44871;PMS7003;30602;51.060;17.226;2023-10-19T15:54:19;61;49;29
44871;PMS7003;30602;51.060;17.226;2023-10-19T15:58:07;65;51;30
44871;PMS7003;30602;51.060;17.226;2023-10-19T16:01:58;59;48;30
44871;PMS7003;30602;51.060;17.226;2023-10-19T16:06:00;67;51;30
44871;PMS7003;30602;51.060;17.226;2023-10-19T16:09:44;59;49;30
44871;PMS7003;30602;51.060;17.226;2023-10-19T16:13:13;64;51;30
44871;PMS7003;30602;51.060;17.226;2023-10-19T16:17:21;64;51;31
44871;PMS7003;30602;51.060;17.226;2023-10-19T16:21:41;63;48;29
44871;PMS7003;30602;51.060;17.226;2023-10-19T16:30:02;66;50;31
44871;PMS7003;30602;51.060;17.226;2023-10-19T16:34:20;61;47;29
44871;PMS7003;30602;51.060;17.226;2023-10-19T16:37:52;67;52;31
44871;PMS7003;30602;51.060;17.226;2023-10-19T16:41:40;66;55;32
44871;PMS7003;30602;51.060;17.226;2023-10-19T16:45:17;60;48;29
44871;PMS7003;30602;51.060;17.226;2023-10-19T16:49:50;65;52;31
44871;PMS7003;30602;51.060;17.226;2023-10-19T16:54:13;75;55;34
44871;PMS7003;30602;51.060;17.226;2023-10-19T16:57:35;74;58;36
44871;PMS7003;30602;51.060;17.226;2023-10-19T17:01:04;74;58;35
44871;PMS7003;30602;51.060;17.226;2023-10-19T17:05:44;69;55;34
44871;PMS7003;30602;51.060;17.226;2023-10-19T17:09:57;60;49;30
44871;PMS7003;30602;51.060;17.226;2023-10-19T17:13:43;61;52;31
44871;PMS7003;30602;51.060;17.226;2023-10-19T17:17:57;66;54;34
44871;PMS7003;30602;51.060;17.226;2023-10-19T17:22:03;73;57;34
44871;PMS7003;30602;51.060;17.226;2023-10-19T17:26:01;71;55;34
44871;PMS7003;30602;51.060;17.226;2023-10-19T17:29:44;77;59;34
44871;PMS7003;30602;51.060;17.226;2023-10-19T17:33:09;75;58;34
44871;PMS7003;30602;51.060;17.226;2023-10-19T17:37:02;64;52;29
44871;PMS7003;30602;51.060;17.226;2023-10-19T17:41:30;72;57;34
44871;PMS7003;30602;51.060;17.226;2023-10-19T17:49:29;69;55;31
44871;PMS7003;30602;51.060;17.226;2023-10-19T17:52:56;77;60;36
44871;PMS7003;30602;51.060;17.226;2023-10-19T17:56:23;66;52;33
44871;PMS7003;30602;51.060;17.226;2023-10-19T18:00:05;78;59;35
44871;PMS7003;30602;51.060;17.226;2023-10-19T18:03:51;97;82;45
44871;PMS7003;30602;51.060;17.226;2023-10-19T18:07:20;82;62;34
44871;PMS7003;30602;51.060;17.226;2023-10-19T18:10:42;73;58;34
44871;PMS7003;30602;51.060;17.226;2023-10-19T18:14:40;77;59;35
44871;PMS7003;30602;51.060;17.226;2023-10-19T18:18:06;78;57;33
44871;PMS7003;30602;51.060;17.226;2023-10-19T18:21:32;74;60;35
44871;PMS7003;30602;51.060;17.226;2023-10-19T18:25:24;78;60;35
44871;PMS7003;30602;51.060;17.226;2023-10-19T18:29:46;82;61;37
44871;PMS7003;30602;51.060;17.226;2023-10-19T18:33:35;75;56;31
44871;PMS7003;30602;51.060;17.226;2023-10-19T18:37:21;78;59;35
44871;PMS7003;30602;51.060;17.226;2023-10-19T18:41:14;81;61;36
44871;PMS7003;30602;51.060;17.226;2023-10-19T18:45:05;81;62;35
44871;PMS7003;30602;51.060;17.226;2023-10-19T18:48:53;82;62;36
44871;PMS7003;30602;51.060;17.226;2023-10-19T18:53:16;79;62;37
44871;PMS7003;30602;51.060;17.226;2023-10-19T18:56:54;79;62;36
44871;PMS7003;30602;51.060;17.226;2023-10-19T19:01:19;76;57;35
44871;PMS7003;30602;51.060;17.226;2023-10-19T19:06:00;77;58;34
44871;PMS7003;30602;51.060;17.226;2023-10-19T19:10:20;74;60;36
44871;PMS7003;30602;51.060;17.226;2023-10-19T19:14:22;74;58;34
44871;PMS7003;30602;51.060;17.226;2023-10-19T19:18:55;83;62;36
44871;PMS7003;30602;51.060;17.226;2023-10-19T19:22:32;75;59;34
44871;PMS7003;30602;51.060;17.226;2023-10-19T19:27:16;82;61;35
44871;PMS7003;30602;51.060;17.226;2023-10-19T19:31:35;76;60;35
44871;PMS7003;30602;51.060;17.226;2023-10-19T19:35:30;79;58;36
44871;PMS7003;30602;51.060;17.226;2023-10-19T19:39:25;76;59;35
44871;PMS7003;30602;51.060;17.226;2023-10-19T19:43:12;80;62;35
44871;PMS7003;30602;51.060;17.226;2023-10-19T19:46:41;79;62;36
44871;PMS7003;30602;51.060;17.226;2023-10-19T19:50:13;74;58;35
44871;PMS7003;30602;51.060;17.226;2023-10-19T19:54:52;82;62;36
44871;PMS7003;30602;51.060;17.226;2023-10-19T19:58:40;82;61;36
44871;PMS7003;30602;51.060;17.226;2023-10-19T20:02:11;80;61;35
44871;PMS7003;30602;51.060;17.226;2023-10-19T20:06:01;75;57;35
44871;PMS7003;30602;51.060;17.226;2023-10-19T20:10:09;83;61;37
44871;PMS7003;30602;51.060;17.226;2023-10-19T20:13:48;79;61;36
44871;PMS7003;30602;51.060;17.226;2023-10-19T20:17:46;85;63;36
44871;PMS7003;30602;51.060;17.226;2023-10-19T20:21:44;80;61;36
44871;PMS7003;30602;51.060;17.226;2023-10-19T20:25:49;82;63;36
44871;PMS7003;30602;51.060;17.226;2023-10-19T20:29:15;77;60;36
44871;PMS7003;30602;51.060;17.226;2023-10-19T20:33:34;80;61;35
44871;PMS7003;30602;51.060;17.226;2023-10-19T20:38:00;85;62;36
44871;PMS7003;30602;51.060;17.226;2023-10-19T20:43:00;79;61;35
44871;PMS7003;30602;51.060;17.226;2023-10-19T20:47:20;77;60;35
44871;PMS7003;30602;51.060;17.226;2023-10-19T20:51:23;84;63;37
44871;PMS7003;30602;51.060;17.226;2023-10-19T20:55:28;78;60;36
44871;PMS7003;30602;51.060;17.226;2023-10-19T20:59:09;84;65;37
44871;PMS7003;30602;51.060;17.226;2023-10-19T21:03:35;85;63;37
44871;PMS7003;30602;51.060;17.226;2023-10-19T21:07:32;84;62;36
44871;PMS7003;30602;51.060;17.226;2023-10-19T21:11:02;77;60;33
44871;PMS7003;30602;51.060;17.226;2023-10-19T21:15:09;79;62;36
44871;PMS7003;30602;51.060;17.226;2023-10-19T21:18:45;85;63;37
44871;PMS7003;30602;51.060;17.226;2023-10-19T21:22:12;84;63;37
44871;PMS7003;30602;51.060;17.226;2023-10-19T21:26:10;81;63;36
44871;PMS7003;30602;51.060;17.226;2023-10-19T21:29:53;80;61;36
44871;PMS7003;30602;51.060;17.226;2023-10-19T21:33:40;85;63;36
44871;PMS7003;30602;51.060;17.226;2023-10-19T21:37:10;80;63;36
44871;PMS7003;30602;51.060;17.226;2023-10-19T21:40:45;83;61;36
44871;PMS7003;30602;51.060;17.226;2023-10-19T21:44:59;77;58;30
44871;PMS7003;30602;51.060;17.226;2023-10-19T21:49:24;81;61;35
44871;PMS7003;30602;51.060;17.226;2023-10-19T21:53:40;80;61;36
44871;PMS7003;30602;51.060;17.226;2023-10-19T21:57:10;83;61;36
44871;PMS7003;30602;51.060;17.226;2023-10-19T22:00:56;84;64;37
44871;PMS7003;30602;51.060;17.226;2023-10-19T22:04:28;68;54;28
44871;PMS7003;30602;51.060;17.226;2023-10-19T22:08:17;86;64;36
44871;PMS7003;30602;51.060;17.226;2023-10-19T22:12:14;78;59;36
44871;PMS7003;30602;51.060;17.226;2023-10-19T22:16:00;79;60;34
44871;PMS7003;30602;51.060;17.226;2023-10-19T22:20:29;84;65;37
44871;PMS7003;30602;51.060;17.226;2023-10-19T22:25:16;87;65;37
44871;PMS7003;30602;51.060;17.226;2023-10-19T22:28:51;83;61;34
44871;PMS7003;30602;51.060;17.226;2023-10-19T22:32:29;81;61;36
44871;PMS7003;30602;51.060;17.226;2023-10-19T22:35:55;79;60;37
44871;PMS7003;30602;51.060;17.226;2023-10-19T22:39:28;79;60;34
44871;PMS7003;30602;51.060;17.226;2023-10-19T22:43:26;82;60;35
44871;PMS7003;30602;51.060;17.226;2023-10-19T22:47:14;78;61;35
44871;PMS7003;30602;51.060;17.226;2023-10-19T22:51:12;82;62;36
44871;PMS7003;30602;51.060;17.226;2023-10-19T22:55:04;81;61;35
44871;PMS7003;30602;51.060;17.226;2023-10-19T22:59:35;70;53;31
44871;PMS7003;30602;51.060;17.226;2023-10-19T23:03:29;79;61;36
44871;PMS7003;30602;51.060;17.226;2023-10-19T23:06:59;78;59;35
44871;PMS7003;30602;51.060;17.226;2023-10-19T23:10:51;77;58;34
44871;PMS7003;30602;51.060;17.226;2023-10-19T23:14:23;72;55;32
44871;PMS7003;30602;51.060;17.226;2023-10-19T23:18:17;73;57;34
44871;PMS7003;30602;51.060;17.226;2023-10-19T23:22:17;69;51;29
44871;PMS7003;30602;51.060;17.226;2023-10-19T23:25:48;75;56;33
44871;PMS7003;30602;51.060;17.226;2023-10-19T23:29:24;77;60;35
44871;PMS7003;30602;51.060;17.226;2023-10-19T23:33:52;73;55;33
44871;PMS7003;30602;51.060;17.226;2023-10-19T23:37:42;71;55;33
44871;PMS7003;30602;51.060;17.226;2023-10-19T23:41:27;74;56;32
44871;PMS7003;30602;51.060;17.226;2023-10-19T23:45:30;69;54;32
44871;PMS7003;30602;51.060;17.226;2023-10-19T23:49:49;75;56;33
44871;PMS7003;30602;51.060;17.226;2023-10-19T23:54:16;75;57;33
44871;PMS7003;30602;51.060;17.226;2023-10-19T23:57:43;76;59;35
